Decoded Metar for LEBB (BILBAO in SPAIN) (IATA:BIO) | Meteo·Mobile Aviation Weather
aviador You're here:

LEBB Decoded Metar

BILBAO in SPAIN
Report Time2019-01-16 19:00:00
UTC Time2019-01-16 19:16:44
Flight Rules vfr VFR
WindVRB at 01 kt
Visibility9999 m
Phenomena:N/A
Clouds:Scattered 045 Hf
Scattered 055 Hf
Expected CloudBase > 3,200 ft AGL from Temp-Dew spread
CeilingNone
Temp11°C (ISA -4)
Dew Point03°C (58% RH)
AAT9.1°C
QNH1017 hPa
Density Alt-371 ft
Elevation112 ft
Report Wrong Elevation
Raw Report
LEBB 161900Z VRB01KT 9999 SCT045 SCT055 11/03 Q1017 NOSIG=

Extra information for LEBB:More info

Metar Taf Metar & Taf Last 4 Metars F.Rules Stats Wind Profile Meteogram Temp Stats Airport Information Weather charts Add Link Nearby VenuesMetar ALERT Operation Metar Decoded Social comments